Umm Slal — V7PW3 — position and weather

sailwx.info

Track history (hours):
 
Tides and Currents Weather Stations Pressure Air Temp Water Temp Dewpoint Dewpoint Depression Visibility Wind Speed Wind Dir Waves Ship Positions

Umm Slal

Last reported at 2018-Feb-19 04:44 UTC. Time now 2018-Feb-21 23:19 UTC.
Position N 01°14' E 103°58'.

Length 345 m; draft 12 m.

Type: Ship (hazmat cat D). MMSI: 538003300.

Date/timePositionNaut miles runAvg speedWind from/ knotsBaromVisibWave heightAir tempDewpointWater temp
2018-Feb-19 04:44N 01°14' E 103°58'1 3.6
2018-Feb-19 04:29N 01°14' E 103°58'510.0
2018-Feb-19 04:00N 01°12' E 103°53'5 9.6
2018-Feb-19 03:30N 01°10' E 103°48'612.0
2018-Feb-19 03:00N 01°06' E 103°44'612.3
2018-Feb-19 02:30N 01°03' E 103°39'612.1
2018-Feb-19 02:00N 01°06' E 103°33'610.9
2018-Feb-19 01:29N 01°09' E 103°29'910.4
2018-Feb-19 00:38N 01°14' E 103°21'310.4
2018-Feb-19 00:23N 01°15' E 103°19'  
Track history (hours):
 
Tides and Currents Weather Stations Pressure Air Temp Water Temp Dewpoint Dewpoint Depression Visibility Wind Speed Wind Dir Waves Ship Positions

Umm Slal

Last reported at 2018-Feb-19 04:44 UTC. Time now 2018-Feb-21 23:19 UTC.
Position N 01°14' E 103°58'.

Length 345 m; draft 12 m.

Type: Ship (hazmat cat D). MMSI: 538003300.

Date/timePositionNaut miles runAvg speedWind from/ knotsBaromVisibWave heightAir tempDewpointWater temp
2018-Feb-19 04:44N 01°14' E 103°58'1 3.6
2018-Feb-19 04:29N 01°14' E 103°58'510.0
2018-Feb-19 04:00N 01°12' E 103°53'5 9.6
2018-Feb-19 03:30N 01°10' E 103°48'612.0
2018-Feb-19 03:00N 01°06' E 103°44'612.3
2018-Feb-19 02:30N 01°03' E 103°39'612.1
2018-Feb-19 02:00N 01°06' E 103°33'610.9
2018-Feb-19 01:29N 01°09' E 103°29'910.4
2018-Feb-19 00:38N 01°14' E 103°21'310.4
2018-Feb-19 00:23N 01°15' E 103°19'  

Dump ship's entire track history